sensor_id;sensor_type;location;lat;lon;timestamp;pressure;altitude;pressure_sealevel;temperature;humidity
25658;BME280;13517;59.320;18.042;2023-06-10T00:02:09;102344.66;;;8.37;77.95
25658;BME280;13517;59.320;18.042;2023-06-10T00:04:36;102343.78;;;8.36;78.72
25658;BME280;13517;59.320;18.042;2023-06-10T00:07:05;102370.25;;;8.53;78.98
25658;BME280;13517;59.320;18.042;2023-06-10T00:09:37;102351.72;;;8.41;79.17
25658;BME280;13517;59.320;18.042;2023-06-10T00:12:07;102323.38;;;8.27;79.27
25658;BME280;13517;59.320;18.042;2023-06-10T00:14:37;102350.00;;;8.38;80.07
25658;BME280;13517;59.320;18.042;2023-06-10T00:17:03;102323.47;;;8.24;80.33
25658;BME280;13517;59.320;18.042;2023-06-10T00:19:28;102300.81;;;8.01;80.60
25658;BME280;13517;59.320;18.042;2023-06-10T00:21:56;102340.56;;;8.23;81.36
25658;BME280;13517;59.320;18.042;2023-06-10T00:24:21;102344.25;;;8.19;81.28
25658;BME280;13517;59.320;18.042;2023-06-10T00:26:47;102351.47;;;8.18;82.21
25658;BME280;13517;59.320;18.042;2023-06-10T00:29:13;102388.59;;;8.39;82.38
25658;BME280;13517;59.320;18.042;2023-06-10T00:31:39;102384.19;;;8.35;82.78
25658;BME280;13517;59.320;18.042;2023-06-10T00:34:04;102351.72;;;8.09;83.47
25658;BME280;13517;59.320;18.042;2023-06-10T00:36:30;102288.19;;;7.70;83.61
25658;BME280;13517;59.320;18.042;2023-06-10T00:38:56;102357.34;;;8.01;84.32
25658;BME280;13517;59.320;18.042;2023-06-10T00:41:22;102298.94;;;7.72;84.52
25658;BME280;13517;59.320;18.042;2023-06-10T00:43:47;102313.03;;;7.80;84.93
25658;BME280;13517;59.320;18.042;2023-06-10T00:46:13;102322.56;;;7.92;85.11
25658;BME280;13517;59.320;18.042;2023-06-10T00:48:42;102351.75;;;8.08;85.57
25658;BME280;13517;59.320;18.042;2023-06-10T00:51:09;102356.03;;;8.15;85.86
25658;BME280;13517;59.320;18.042;2023-06-10T00:53:41;102335.91;;;7.97;86.49
25658;BME280;13517;59.320;18.042;2023-06-10T00:56:07;102399.63;;;8.29;86.56
25658;BME280;13517;59.320;18.042;2023-06-10T00:58:32;102363.44;;;8.07;87.41
25658;BME280;13517;59.320;18.042;2023-06-10T01:00:58;102401.44;;;8.29;88.26
25658;BME280;13517;59.320;18.042;2023-06-10T01:03:24;102339.69;;;7.89;88.59
25658;BME280;13517;59.320;18.042;2023-06-10T01:05:55;102410.41;;;8.29;90.07
25658;BME280;13517;59.320;18.042;2023-06-10T01:08:46;102374.16;;;8.10;93.56
25658;BME280;13517;59.320;18.042;2023-06-10T01:11:21;102409.47;;;8.30;91.62
25658;BME280;13517;59.320;18.042;2023-06-10T01:13:50;102411.22;;;8.31;91.54
25658;BME280;13517;59.320;18.042;2023-06-10T01:16:17;102343.38;;;7.87;91.60
25658;BME280;13517;59.320;18.042;2023-06-10T01:18:44;102410.41;;;8.29;91.89
25658;BME280;13517;59.320;18.042;2023-06-10T01:21:16;102371.63;;;8.03;92.21
25658;BME280;13517;59.320;18.042;2023-06-10T01:23:42;102385.66;;;8.15;92.45
25658;BME280;13517;59.320;18.042;2023-06-10T01:26:10;102384.91;;;8.10;93.61
25658;BME280;13517;59.320;18.042;2023-06-10T01:28:44;102362.88;;;7.95;93.69
25658;BME280;13517;59.320;18.042;2023-06-10T01:34:09;102414.34;;;8.16;94.29
25658;BME280;13517;59.320;18.042;2023-06-10T01:36:36;102413.34;;;8.20;95.36
25658;BME280;13517;59.320;18.042;2023-06-10T01:39:03;102413.34;;;8.20;95.40
25658;BME280;13517;59.320;18.042;2023-06-10T01:41:30;102356.06;;;7.82;96.05
25658;BME280;13517;59.320;18.042;2023-06-10T01:43:56;102366.69;;;7.86;96.35
25658;BME280;13517;59.320;18.042;2023-06-10T01:46:22;102363.16;;;7.84;97.73
25658;BME280;13517;59.320;18.042;2023-06-10T01:48:48;102413.66;;;8.08;97.74
25658;BME280;13517;59.320;18.042;2023-06-10T01:51:13;102316.28;;;7.60;97.99
25658;BME280;13517;59.320;18.042;2023-06-10T01:53:39;102278.81;;;7.52;97.58
25658;BME280;13517;59.320;18.042;2023-06-10T01:56:04;102415.28;;;8.47;97.13
25658;BME280;13517;59.320;18.042;2023-06-10T01:58:30;102422.19;;;8.58;96.92
25658;BME280;13517;59.320;18.042;2023-06-10T02:00:55;102443.34;;;8.71;96.75
25658;BME280;13517;59.320;18.042;2023-06-10T02:03:21;102410.69;;;8.50;96.48
25658;BME280;13517;59.320;18.042;2023-06-10T02:05:47;102356.31;;;8.37;96.25
25658;BME280;13517;59.320;18.042;2023-06-10T02:08:12;102235.06;;;7.79;96.28
25658;BME280;13517;59.320;18.042;2023-06-10T02:10:37;102397.19;;;8.83;95.58
25658;BME280;13517;59.320;18.042;2023-06-10T02:13:03;102407.47;;;8.99;94.88
25658;BME280;13517;59.320;18.042;2023-06-10T02:15:28;102424.66;;;9.25;93.83
25658;BME280;13517;59.320;18.042;2023-06-10T02:17:54;102366.69;;;9.10;93.64
25658;BME280;13517;59.320;18.042;2023-06-10T02:20:20;102376.88;;;9.30;92.91
25658;BME280;13517;59.320;18.042;2023-06-10T02:22:46;102394.34;;;9.45;91.37
25658;BME280;13517;59.320;18.042;2023-06-10T02:25:11;102446.59;;;9.70;90.79
25658;BME280;13517;59.320;18.042;2023-06-10T02:27:37;102430.31;;;9.73;90.66
25658;BME280;13517;59.320;18.042;2023-06-10T02:30:02;102435.59;;;10.03;89.87
25658;BME280;13517;59.320;18.042;2023-06-10T02:32:28;102438.94;;;10.09;88.45
25658;BME280;13517;59.320;18.042;2023-06-10T02:34:53;102444.34;;;10.09;89.05
25658;BME280;13517;59.320;18.042;2023-06-10T02:37:19;102421.66;;;10.15;88.33
25658;BME280;13517;59.320;18.042;2023-06-10T02:39:45;102400.69;;;10.22;86.76
25658;BME280;13517;59.320;18.042;2023-06-10T02:42:11;102298.91;;;9.75;86.30
25658;BME280;13517;59.320;18.042;2023-06-10T02:44:36;102448.22;;;10.79;86.20
25658;BME280;13517;59.320;18.042;2023-06-10T02:47:02;102417.41;;;10.83;85.21
25658;BME280;13517;59.320;18.042;2023-06-10T02:49:27;102429.63;;;10.93;84.55
25658;BME280;13517;59.320;18.042;2023-06-10T02:51:53;102435.06;;;11.15;84.29
25658;BME280;13517;59.320;18.042;2023-06-10T02:54:20;102444.72;;;11.45;83.23
25658;BME280;13517;59.320;18.042;2023-06-10T02:56:45;102425.72;;;11.47;82.13
25658;BME280;13517;59.320;18.042;2023-06-10T02:59:13;102389.28;;;11.11;81.68
25658;BME280;13517;59.320;18.042;2023-06-10T03:01:39;102457.06;;;11.52;81.44
25658;BME280;13517;59.320;18.042;2023-06-10T03:04:05;102443.53;;;11.52;80.60
25658;BME280;13517;59.320;18.042;2023-06-10T03:06:31;102405.50;;;11.55;79.40
25658;BME280;13517;59.320;18.042;2023-06-10T03:08:59;102446.84;;;12.02;78.18
25658;BME280;13517;59.320;18.042;2023-06-10T03:11:25;102369.03;;;11.64;77.46
25658;BME280;13517;59.320;18.042;2023-06-10T03:13:51;102461.75;;;11.92;77.05
25658;BME280;13517;59.320;18.042;2023-06-10T03:16:17;102425.78;;;11.67;77.02
25658;BME280;13517;59.320;18.042;2023-06-10T03:18:43;102349.94;;;11.24;76.28
25658;BME280;13517;59.320;18.042;2023-06-10T03:21:09;102321.69;;;11.31;75.60
25658;BME280;13517;59.320;18.042;2023-06-10T03:23:34;102433.38;;;12.01;74.24
25658;BME280;13517;59.320;18.042;2023-06-10T03:25:59;102469.41;;;12.03;75.10
25658;BME280;13517;59.320;18.042;2023-06-10T03:28:25;102409.38;;;11.70;74.10
25658;BME280;13517;59.320;18.042;2023-06-10T03:30:51;102428.00;;;11.78;74.00
25658;BME280;13517;59.320;18.042;2023-06-10T03:33:17;102421.09;;;11.71;73.67
25658;BME280;13517;59.320;18.042;2023-06-10T03:35:42;102441.66;;;11.75;74.05
25658;BME280;13517;59.320;18.042;2023-06-10T03:38:08;102471.19;;;11.81;74.96
25658;BME280;13517;59.320;18.042;2023-06-10T03:40:33;102312.91;;;10.82;74.20
25658;BME280;13517;59.320;18.042;2023-06-10T03:43:00;102403.25;;;11.22;74.07
25658;BME280;13517;59.320;18.042;2023-06-10T03:45:25;102475.13;;;11.52;74.34
25658;BME280;13517;59.320;18.042;2023-06-10T03:47:53;102477.19;;;11.45;74.88
25658;BME280;13517;59.320;18.042;2023-06-10T03:50:18;102415.69;;;11.04;74.81
25658;BME280;13517;59.320;18.042;2023-06-10T03:52:44;102451.81;;;11.25;73.81
25658;BME280;13517;59.320;18.042;2023-06-10T03:55:11;102366.16;;;10.80;73.10
25658;BME280;13517;59.320;18.042;2023-06-10T03:57:38;102400.34;;;11.04;73.10
25658;BME280;13517;59.320;18.042;2023-06-10T04:00:04;102458.38;;;11.42;72.74
25658;BME280;13517;59.320;18.042;2023-06-10T04:02:37;102462.75;;;11.44;71.85
25658;BME280;13517;59.320;18.042;2023-06-10T04:05:07;102465.97;;;11.54;71.21
25658;BME280;13517;59.320;18.042;2023-06-10T04:07:32;102463.91;;;11.61;71.17
25658;BME280;13517;59.320;18.042;2023-06-10T04:09:59;102395.00;;;11.25;70.44
25658;BME280;13517;59.320;18.042;2023-06-10T04:12:25;102443.78;;;11.46;70.20
25658;BME280;13517;59.320;18.042;2023-06-10T04:14:50;102464.69;;;11.65;69.72
25658;BME280;13517;59.320;18.042;2023-06-10T04:17:16;102402.16;;;11.49;69.54
25658;BME280;13517;59.320;18.042;2023-06-10T04:19:42;102485.56;;;12.06;68.89
25658;BME280;13517;59.320;18.042;2023-06-10T04:22:07;102404.69;;;11.53;68.43
25658;BME280;13517;59.320;18.042;2023-06-10T04:24:32;102457.81;;;11.78;68.17
25658;BME280;13517;59.320;18.042;2023-06-10T04:26:58;102490.72;;;11.90;68.26
25658;BME280;13517;59.320;18.042;2023-06-10T04:29:23;102423.75;;;11.50;67.98
25658;BME280;13517;59.320;18.042;2023-06-10T04:31:49;102457.25;;;11.70;68.81
25658;BME280;13517;59.320;18.042;2023-06-10T04:34:14;102425.53;;;11.51;68.61
25658;BME280;13517;59.320;18.042;2023-06-10T04:36:40;102374.78;;;11.12;68.52
25658;BME280;13517;59.320;18.042;2023-06-10T04:39:05;102497.09;;;11.66;67.92
25658;BME280;13517;59.320;18.042;2023-06-10T04:41:31;102448.16;;;11.26;68.14
25658;BME280;13517;59.320;18.042;2023-06-10T04:43:56;102419.25;;;11.04;68.62
25658;BME280;13517;59.320;18.042;2023-06-10T04:46:23;102488.81;;;11.47;68.78
25658;BME280;13517;59.320;18.042;2023-06-10T04:48:48;102465.81;;;11.37;68.30
25658;BME280;13517;59.320;18.042;2023-06-10T04:51:14;102469.22;;;11.42;68.30
25658;BME280;13517;59.320;18.042;2023-06-10T04:53:39;102487.31;;;11.40;68.60
25658;BME280;13517;59.320;18.042;2023-06-10T04:56:05;102485.56;;;11.39;68.72
25658;BME280;13517;59.320;18.042;2023-06-10T04:58:30;102480.28;;;11.36;68.53
25658;BME280;13517;59.320;18.042;2023-06-10T05:00:56;102472.16;;;11.36;68.40
25658;BME280;13517;59.320;18.042;2023-06-10T05:03:21;102471.97;;;11.40;68.82
25658;BME280;13517;59.320;18.042;2023-06-10T05:05:47;102490.72;;;11.45;69.30
25658;BME280;13517;59.320;18.042;2023-06-10T05:08:12;102481.84;;;11.41;69.57
25658;BME280;13517;59.320;18.042;2023-06-10T05:10:37;102443.13;;;11.17;69.15
25658;BME280;13517;59.320;18.042;2023-06-10T05:13:03;102476.13;;;11.49;69.18
25658;BME280;13517;59.320;18.042;2023-06-10T05:15:29;102464.03;;;11.36;69.14
25658;BME280;13517;59.320;18.042;2023-06-10T05:17:56;102434.63;;;11.26;70.06
25658;BME280;13517;59.320;18.042;2023-06-10T05:20:23;102469.78;;;11.50;69.65
25658;BME280;13517;59.320;18.042;2023-06-10T05:22:50;102405.72;;;11.04;69.76
25658;BME280;13517;59.320;18.042;2023-06-10T05:25:16;102472.28;;;11.55;70.10
25658;BME280;13517;59.320;18.042;2023-06-10T05:27:41;102442.44;;;11.34;69.17
25658;BME280;13517;59.320;18.042;2023-06-10T05:30:09;102509.50;;;11.72;68.86
25658;BME280;13517;59.320;18.042;2023-06-10T05:32:35;102467.88;;;11.52;68.48
25658;BME280;13517;59.320;18.042;2023-06-10T05:35:00;102506.41;;;11.81;67.94
25658;BME280;13517;59.320;18.042;2023-06-10T05:37:26;102427.16;;;11.33;68.29
25658;BME280;13517;59.320;18.042;2023-06-10T05:39:52;102462.78;;;11.67;67.70
25658;BME280;13517;59.320;18.042;2023-06-10T05:42:17;102485.06;;;11.74;67.61
25658;BME280;13517;59.320;18.042;2023-06-10T05:44:43;102477.00;;;11.72;67.43
25658;BME280;13517;59.320;18.042;2023-06-10T05:47:08;102298.81;;;10.73;67.19
25658;BME280;13517;59.320;18.042;2023-06-10T05:49:34;102390.28;;;11.30;66.81
25658;BME280;13517;59.320;18.042;2023-06-10T05:51:59;102497.34;;;12.05;66.91
25658;BME280;13517;59.320;18.042;2023-06-10T05:54:25;102463.78;;;11.87;66.26
25658;BME280;13517;59.320;18.042;2023-06-10T05:56:51;102512.25;;;12.15;65.83
25658;BME280;13517;59.320;18.042;2023-06-10T05:59:16;102437.19;;;11.74;65.95
25658;BME280;13517;59.320;18.042;2023-06-10T06:01:42;102470.44;;;12.00;65.84
25658;BME280;13517;59.320;18.042;2023-06-10T06:04:07;102466.28;;;11.91;65.52
25658;BME280;13517;59.320;18.042;2023-06-10T06:06:33;102488.22;;;12.07;65.56
25658;BME280;13517;59.320;18.042;2023-06-10T06:08:58;102423.34;;;11.82;64.97
25658;BME280;13517;59.320;18.042;2023-06-10T06:11:23;102514.84;;;12.39;64.95
25658;BME280;13517;59.320;18.042;2023-06-10T06:13:50;102460.31;;;12.05;65.02
25658;BME280;13517;59.320;18.042;2023-06-10T06:16:16;102498.13;;;12.29;64.13
25658;BME280;13517;59.320;18.042;2023-06-10T06:18:43;102398.34;;;11.75;64.15
25658;BME280;13517;59.320;18.042;2023-06-10T06:21:09;102518.16;;;12.46;64.62
25658;BME280;13517;59.320;18.042;2023-06-10T06:23:34;102464.09;;;12.22;64.49
25658;BME280;13517;59.320;18.042;2023-06-10T06:26:00;102519.53;;;12.56;64.31
25658;BME280;13517;59.320;18.042;2023-06-10T06:28:25;102495.81;;;12.41;64.39
25658;BME280;13517;59.320;18.042;2023-06-10T06:30:57;102390.84;;;11.82;63.66
25658;BME280;13517;59.320;18.042;2023-06-10T06:33:22;102405.69;;;11.94;63.38
25658;BME280;13517;59.320;18.042;2023-06-10T06:35:48;102509.50;;;12.58;63.19
25658;BME280;13517;59.320;18.042;2023-06-10T06:38:14;102474.00;;;12.44;62.65
25658;BME280;13517;59.320;18.042;2023-06-10T06:40:39;102504.59;;;12.66;62.48
25658;BME280;13517;59.320;18.042;2023-06-10T06:43:04;102500.06;;;12.67;61.89
25658;BME280;13517;59.320;18.042;2023-06-10T06:45:30;102501.03;;;12.66;61.88
25658;BME280;13517;59.320;18.042;2023-06-10T06:47:55;102495.19;;;12.75;62.08
25658;BME280;13517;59.320;18.042;2023-06-10T06:50:21;102514.47;;;12.88;61.87
25658;BME280;13517;59.320;18.042;2023-06-10T06:52:47;102523.00;;;13.00;61.28
25658;BME280;13517;59.320;18.042;2023-06-10T06:55:12;102492.88;;;12.87;60.34
25658;BME280;13517;59.320;18.042;2023-06-10T06:57:37;102520.13;;;13.03;60.79
25658;BME280;13517;59.320;18.042;2023-06-10T07:00:04;102479.44;;;12.84;61.01
25658;BME280;13517;59.320;18.042;2023-06-10T07:02:29;102508.25;;;13.05;60.70
25658;BME280;13517;59.320;18.042;2023-06-10T07:04:57;102495.72;;;13.03;60.07
25658;BME280;13517;59.320;18.042;2023-06-10T07:07:22;102544.97;;;13.33;60.15
25658;BME280;13517;59.320;18.042;2023-06-10T07:09:48;102468.34;;;12.88;60.01
25658;BME280;13517;59.320;18.042;2023-06-10T07:12:13;102561.97;;;13.37;59.83
25658;BME280;13517;59.320;18.042;2023-06-10T07:14:39;102524.72;;;13.21;59.71
25658;BME280;13517;59.320;18.042;2023-06-10T07:17:04;102403.91;;;12.55;59.46
25658;BME280;13517;59.320;18.042;2023-06-10T07:19:30;102507.53;;;13.21;59.07
25658;BME280;13517;59.320;18.042;2023-06-10T07:21:55;102531.38;;;13.33;58.98
25658;BME280;13517;59.320;18.042;2023-06-10T07:24:20;102526.19;;;13.29;59.16
25658;BME280;13517;59.320;18.042;2023-06-10T07:26:46;102549.78;;;13.47;58.17
25658;BME280;13517;59.320;18.042;2023-06-10T07:29:11;102486.72;;;13.21;58.24
25658;BME280;13517;59.320;18.042;2023-06-10T07:31:38;102555.13;;;13.68;57.92
25658;BME280;13517;59.320;18.042;2023-06-10T07:34:03;102483.47;;;13.32;58.01
25658;BME280;13517;59.320;18.042;2023-06-10T07:36:29;102532.56;;;13.66;57.06
25658;BME280;13517;59.320;18.042;2023-06-10T07:38:55;102503.16;;;13.57;57.32
25658;BME280;13517;59.320;18.042;2023-06-10T07:41:20;102555.66;;;13.94;56.49
25658;BME280;13517;59.320;18.042;2023-06-10T07:43:46;102548.22;;;13.98;56.35
25658;BME280;13517;59.320;18.042;2023-06-10T07:46:11;102521.28;;;13.93;55.84
25658;BME280;13517;59.320;18.042;2023-06-10T07:48:36;102488.94;;;13.88;55.65
25658;BME280;13517;59.320;18.042;2023-06-10T07:51:02;102554.59;;;14.34;54.73
25658;BME280;13517;59.320;18.042;2023-06-10T07:53:27;102528.69;;;14.26;54.26
25658;BME280;13517;59.320;18.042;2023-06-10T07:55:53;102552.28;;;14.43;54.45
25658;BME280;13517;59.320;18.042;2023-06-10T07:58:20;102479.84;;;14.07;54.39
25658;BME280;13517;59.320;18.042;2023-06-10T08:00:47;102483.03;;;14.15;54.10
25658;BME280;13517;59.320;18.042;2023-06-10T08:03:12;102498.28;;;14.36;54.71
25658;BME280;13517;59.320;18.042;2023-06-10T08:05:39;102548.50;;;14.64;53.43
25658;BME280;13517;59.320;18.042;2023-06-10T08:08:05;102436.25;;;14.09;52.47
25658;BME280;13517;59.320;18.042;2023-06-10T08:10:30;102459.44;;;14.34;50.38
25658;BME280;13517;59.320;18.042;2023-06-10T08:12:56;102528.19;;;14.71;49.93
25658;BME280;13517;59.320;18.042;2023-06-10T08:15:21;102529.63;;;14.78;49.68
25658;BME280;13517;59.320;18.042;2023-06-10T08:17:46;102510.34;;;14.65;49.38
25658;BME280;13517;59.320;18.042;2023-06-10T08:20:12;102566.56;;;15.00;50.25
25658;BME280;13517;59.320;18.042;2023-06-10T08:22:37;102559.38;;;14.99;50.16
25658;BME280;13517;59.320;18.042;2023-06-10T08:25:03;102525.09;;;14.79;50.32
25658;BME280;13517;59.320;18.042;2023-06-10T08:27:29;102550.56;;;14.94;49.25
25658;BME280;13517;59.320;18.042;2023-06-10T08:29:54;102502.63;;;14.75;48.79
25658;BME280;13517;59.320;18.042;2023-06-10T08:32:20;102503.41;;;14.77;49.47
25658;BME280;13517;59.320;18.042;2023-06-10T08:34:45;102441.97;;;14.38;49.03
25658;BME280;13517;59.320;18.042;2023-06-10T08:37:10;102511.94;;;14.87;48.61
25658;BME280;13517;59.320;18.042;2023-06-10T08:39:36;102559.25;;;15.18;48.06
25658;BME280;13517;59.320;18.042;2023-06-10T08:42:12;102552.13;;;15.16;47.88
25658;BME280;13517;59.320;18.042;2023-06-10T08:44:43;102418.16;;;14.43;47.07
25658;BME280;13517;59.320;18.042;2023-06-10T08:47:14;102522.63;;;15.08;46.66
25658;BME280;13517;59.320;18.042;2023-06-10T08:49:45;102503.19;;;14.98;45.96
25658;BME280;13517;59.320;18.042;2023-06-10T08:52:19;102540.47;;;15.30;46.00
25658;BME280;13517;59.320;18.042;2023-06-10T08:54:52;102545.72;;;15.33;46.22
25658;BME280;13517;59.320;18.042;2023-06-10T08:57:20;102544.53;;;15.38;45.88
25658;BME280;13517;59.320;18.042;2023-06-10T08:59:47;102498.28;;;15.21;46.16
25658;BME280;13517;59.320;18.042;2023-06-10T09:02:14;102520.63;;;15.44;46.07
25658;BME280;13517;59.320;18.042;2023-06-10T09:04:42;102533.38;;;15.59;45.61
25658;BME280;13517;59.320;18.042;2023-06-10T09:07:07;102518.84;;;15.43;45.36
25658;BME280;13517;59.320;18.042;2023-06-10T09:09:34;102436.63;;;15.04;45.40
25658;BME280;13517;59.320;18.042;2023-06-10T09:12:00;102435.41;;;14.93;44.94
25658;BME280;13517;59.320;18.042;2023-06-10T09:14:25;102514.66;;;15.53;44.71
25658;BME280;13517;59.320;18.042;2023-06-10T09:16:51;102530.47;;;15.62;44.80
25658;BME280;13517;59.320;18.042;2023-06-10T09:19:16;102542.78;;;15.70;44.13
25658;BME280;13517;59.320;18.042;2023-06-10T09:21:42;102542.41;;;15.76;44.38
25658;BME280;13517;59.320;18.042;2023-06-10T09:24:08;102482.31;;;15.47;43.81
25658;BME280;13517;59.320;18.042;2023-06-10T09:26:34;102499.19;;;15.53;43.49
25658;BME280;13517;59.320;18.042;2023-06-10T09:29:04;102481.63;;;15.43;43.28
25658;BME280;13517;59.320;18.042;2023-06-10T09:31:30;102531.16;;;15.82;44.01
25658;BME280;13517;59.320;18.042;2023-06-10T09:34:14;102510.84;;;15.72;43.31
25658;BME280;13517;59.320;18.042;2023-06-10T09:36:40;102472.47;;;15.60;43.37
25658;BME280;13517;59.320;18.042;2023-06-10T09:39:17;102474.38;;;15.58;43.75
25658;BME280;13517;59.320;18.042;2023-06-10T09:41:45;102537.91;;;16.07;42.97
25658;BME280;13517;59.320;18.042;2023-06-10T09:44:21;102467.69;;;15.80;41.80
25658;BME280;13517;59.320;18.042;2023-06-10T09:46:49;102511.63;;;16.06;40.54
25658;BME280;13517;59.320;18.042;2023-06-10T09:49:16;102475.06;;;15.94;40.68
25658;BME280;13517;59.320;18.042;2023-06-10T09:51:52;102476.47;;;16.01;40.19
25658;BME280;13517;59.320;18.042;2023-06-10T09:54:18;102514.22;;;16.24;39.70
25658;BME280;13517;59.320;18.042;2023-06-10T09:56:47;102477.47;;;16.15;39.87
25658;BME280;13517;59.320;18.042;2023-06-10T09:59:12;102468.53;;;16.13;40.30
25658;BME280;13517;59.320;18.042;2023-06-10T10:01:38;102405.53;;;15.87;40.20
25658;BME280;13517;59.320;18.042;2023-06-10T10:04:03;102424.59;;;16.03;40.26
25658;BME280;13517;59.320;18.042;2023-06-10T10:06:30;102525.00;;;16.56;40.42
25658;BME280;13517;59.320;18.042;2023-06-10T10:08:55;102502.78;;;16.47;39.10
25658;BME280;13517;59.320;18.042;2023-06-10T10:11:22;102465.44;;;16.33;38.42
25658;BME280;13517;59.320;18.042;2023-06-10T10:13:49;102524.16;;;16.70;38.61
25658;BME280;13517;59.320;18.042;2023-06-10T10:16:36;102523.03;;;16.58;39.12
25658;BME280;13517;59.320;18.042;2023-06-10T10:19:20;102495.66;;;16.45;39.71
25658;BME280;13517;59.320;18.042;2023-06-10T10:21:53;102522.59;;;16.66;40.17
25658;BME280;13517;59.320;18.042;2023-06-10T10:25:10;102510.09;;;16.76;40.15
25658;BME280;13517;59.320;18.042;2023-06-10T10:27:51;102509.72;;;16.82;38.52
25658;BME280;13517;59.320;18.042;2023-06-10T10:30:20;102517.16;;;16.95;39.47
25658;BME280;13517;59.320;18.042;2023-06-10T10:33:06;102519.22;;;17.06;39.49
25658;BME280;13517;59.320;18.042;2023-06-10T10:35:36;102509.19;;;17.06;38.69
25658;BME280;13517;59.320;18.042;2023-06-10T10:38:02;102480.50;;;16.84;38.10
25658;BME280;13517;59.320;18.042;2023-06-10T10:40:29;102505.78;;;17.02;38.39
25658;BME280;13517;59.320;18.042;2023-06-10T10:42:56;102507.66;;;17.00;39.90
25658;BME280;13517;59.320;18.042;2023-06-10T10:45:22;102477.75;;;16.99;39.82
25658;BME280;13517;59.320;18.042;2023-06-10T10:47:52;102483.41;;;16.96;40.55
25658;BME280;13517;59.320;18.042;2023-06-10T10:50:20;102403.00;;;16.58;40.63
25658;BME280;13517;59.320;18.042;2023-06-10T10:52:58;102498.66;;;17.14;40.97
25658;BME280;13517;59.320;18.042;2023-06-10T10:55:25;102519.41;;;17.17;41.21
25658;BME280;13517;59.320;18.042;2023-06-10T10:58:03;102509.88;;;17.10;41.56
25658;BME280;13517;59.320;18.042;2023-06-10T11:03:04;102481.19;;;16.88;43.70
25658;BME280;13517;59.320;18.042;2023-06-10T11:08:00;102513.72;;;16.91;43.90
25658;BME280;13517;59.320;18.042;2023-06-10T11:10:33;102503.31;;;16.98;43.84
25658;BME280;13517;59.320;18.042;2023-06-10T11:12:59;102484.47;;;16.93;43.15
25658;BME280;13517;59.320;18.042;2023-06-10T11:15:27;102510.03;;;16.92;41.88
25658;BME280;13517;59.320;18.042;2023-06-10T11:18:13;102508.94;;;16.80;44.10
25658;BME280;13517;59.320;18.042;2023-06-10T11:20:52;102508.88;;;16.82;44.09
25658;BME280;13517;59.320;18.042;2023-06-10T11:23:42;102512.94;;;16.74;44.84
25658;BME280;13517;59.320;18.042;2023-06-10T11:28:38;102508.28;;;16.91;44.14
25658;BME280;13517;59.320;18.042;2023-06-10T11:31:03;102487.41;;;16.90;43.31
25658;BME280;13517;59.320;18.042;2023-06-10T11:33:29;102513.38;;;17.12;43.13
25658;BME280;13517;59.320;18.042;2023-06-10T11:35:55;102469.38;;;16.87;43.67
25658;BME280;13517;59.320;18.042;2023-06-10T11:38:21;102484.09;;;16.99;44.14
25658;BME280;13517;59.320;18.042;2023-06-10T11:40:50;102447.34;;;16.76;43.50
25658;BME280;13517;59.320;18.042;2023-06-10T11:43:19;102492.50;;;17.11;42.86
25658;BME280;13517;59.320;18.042;2023-06-10T11:45:45;102462.06;;;16.88;42.93
25658;BME280;13517;59.320;18.042;2023-06-10T11:48:12;102501.38;;;17.14;42.98
25658;BME280;13517;59.320;18.042;2023-06-10T11:50:38;102506.34;;;17.22;41.98
25658;BME280;13517;59.320;18.042;2023-06-10T11:53:04;102485.66;;;17.18;41.47
25658;BME280;13517;59.320;18.042;2023-06-10T11:55:44;102494.22;;;17.26;41.52
25658;BME280;13517;59.320;18.042;2023-06-10T11:58:20;102485.84;;;17.15;41.63
25658;BME280;13517;59.320;18.042;2023-06-10T12:03:11;102446.00;;;17.12;41.00
25658;BME280;13517;59.320;18.042;2023-06-10T12:05:36;102454.72;;;17.18;40.35
25658;BME280;13517;59.320;18.042;2023-06-10T12:08:11;102476.41;;;17.21;40.95
25658;BME280;13517;59.320;18.042;2023-06-10T12:10:43;102495.00;;;17.28;40.73
25658;BME280;13517;59.320;18.042;2023-06-10T12:13:09;102465.78;;;17.16;40.37
25658;BME280;13517;59.320;18.042;2023-06-10T12:15:35;102501.31;;;17.43;39.76
25658;BME280;13517;59.320;18.042;2023-06-10T12:18:01;102495.75;;;17.45;40.07
25658;BME280;13517;59.320;18.042;2023-06-10T12:20:28;102442.28;;;17.13;39.79
25658;BME280;13517;59.320;18.042;2023-06-10T12:22:54;102441.47;;;17.11;39.65
25658;BME280;13517;59.320;18.042;2023-06-10T12:25:29;102446.44;;;17.19;38.26
25658;BME280;13517;59.320;18.042;2023-06-10T12:27:56;102493.31;;;17.55;38.82
25658;BME280;13517;59.320;18.042;2023-06-10T12:30:24;102470.69;;;17.38;39.04
25658;BME280;13517;59.320;18.042;2023-06-10T12:32:50;102449.75;;;17.24;40.02
25658;BME280;13517;59.320;18.042;2023-06-10T12:35:46;102477.81;;;17.41;39.54
25658;BME280;13517;59.320;18.042;2023-06-10T12:38:12;102463.56;;;17.36;39.47
25658;BME280;13517;59.320;18.042;2023-06-10T12:40:38;102479.56;;;17.42;39.61
25658;BME280;13517;59.320;18.042;2023-06-10T12:43:06;102485.81;;;17.44;40.06
25658;BME280;13517;59.320;18.042;2023-06-10T12:45:33;102473.22;;;17.41;39.02
25658;BME280;13517;59.320;18.042;2023-06-10T12:48:17;102491.44;;;17.55;38.89
25658;BME280;13517;59.320;18.042;2023-06-10T12:50:43;102471.84;;;17.49;38.15
25658;BME280;13517;59.320;18.042;2023-06-10T12:53:11;102476.41;;;17.48;37.94
25658;BME280;13517;59.320;18.042;2023-06-10T12:55:37;102453.63;;;17.35;37.99
25658;BME280;13517;59.320;18.042;2023-06-10T12:58:03;102441.75;;;17.21;38.26